Time,TemperatureF,DewpointF,PressureIn,WindDirection,WindDirectionDegrees,WindSpeedMPH,WindSpeedGustMPH,Humidity,HourlyPrecipIn,Conditions,Clouds,dailyrainin,SoftwareType,DateUTC
2013-01-25 00:03:00,11.0,7.0,-100.00,WSW,251,0.0,12.0,77,0.00,,,-99.99,,2013-01-25 05:03:00,
2013-01-25 00:12:00,13.0,9.0,-100.00,SW,224,1.0,12.0,77,0.00,,,-99.99,,2013-01-25 05:12:00,
2013-01-25 00:22:00,10.0,5.0,-100.00,West,266,1.0,12.0,77,0.00,,,-99.99,,2013-01-25 05:22:00,
2013-01-25 00:32:00,11.0,5.0,-100.00,SW,230,1.0,12.0,77,0.00,,,-99.99,,2013-01-25 05:32:00,
2013-01-25 00:43:00,11.0,7.0,-100.00,SE,129,0.0,12.0,77,0.00,,,-99.99,,2013-01-25 05:43:00,
2013-01-25 00:52:00,14.0,10.0,-100.00,NW,324,0.0,12.0,80,0.00,,,-99.99,,2013-01-25 05:52:00,
2013-01-25 01:02:00,14.0,10.0,-100.00,WNW,289,0.0,12.0,78,0.00,,,-99.99,,2013-01-25 06:02:00,
2013-01-25 01:12:00,12.0,7.0,-100.00,WSW,254,1.0,12.0,77,0.00,,,-99.99,,2013-01-25 06:12:00,
2013-01-25 01:22:00,11.0,7.0,-100.00,WNW,290,1.0,12.0,77,0.00,,,-99.99,,2013-01-25 06:22:00,
2013-01-25 01:32:00,15.0,10.0,-100.00,WSW,255,1.0,12.0,78,0.00,,,-99.99,,2013-01-25 06:32:00,
2013-01-25 01:42:00,15.0,10.0,-100.00,WNW,296,1.0,12.0,77,0.00,,,-99.99,,2013-01-25 06:42:00,
2013-01-25 01:52:00,13.0,9.0,-100.00,WSW,255,1.0,12.0,76,0.00,,,-99.99,,2013-01-25 06:52:00,
2013-01-25 02:02:00,15.0,10.0,-100.00,SW,231,0.0,12.0,76,0.00,,,-99.99,,2013-01-25 07:02:00,
2013-01-25 02:11:00,15.0,10.0,-100.00,West,271,0.0,12.0,77,0.00,,,-99.99,,2013-01-25 07:11:00,
2013-01-25 02:22:00,13.0,9.0,-100.00,WSW,251,1.0,12.0,76,0.00,,,-99.99,,2013-01-25 07:22:00,
2013-01-25 02:32:00,13.0,7.0,-100.00,SW,223,2.0,12.0,75,0.00,,,-99.99,,2013-01-25 07:32:00,
2013-01-25 02:42:00,14.0,7.0,-100.00,WSW,245,2.0,12.0,72,0.00,,,-99.99,,2013-01-25 07:42:00,
2013-01-25 02:51:00,13.0,7.0,-100.00,West,264,1.0,12.0,71,0.00,,,-99.99,,2013-01-25 07:51:00,
2013-01-25 03:02:00,14.0,7.0,-100.00,West,273,1.0,12.0,72,0.00,,,-99.99,,2013-01-25 08:02:00,
2013-01-25 03:12:00,13.0,7.0,-100.00,WNW,299,1.0,12.0,73,0.00,,,-99.99,,2013-01-25 08:12:00,
2013-01-25 03:22:00,14.0,9.0,-100.00,West,264,2.0,12.0,75,0.00,,,-99.99,,2013-01-25 08:22:00,
2013-01-25 03:32:00,13.0,7.0,-100.00,SSW,211,1.0,12.0,72,0.00,,,-99.99,,2013-01-25 08:32:00,
2013-01-25 03:42:00,14.0,7.0,-100.00,WSW,242,1.0,12.0,69,0.00,,,-99.99,,2013-01-25 08:42:00,
2013-01-25 03:52:00,17.0,10.0,-100.00,West,280,1.0,12.0,73,0.00,,,-99.99,,2013-01-25 08:52:00,
2013-01-25 04:02:00,14.0,7.0,-100.00,WSW,256,1.0,12.0,71,0.00,,,-99.99,,2013-01-25 09:02:00,
2013-01-25 04:11:00,15.0,9.0,-100.00,NW,309,1.0,12.0,71,0.00,,,-99.99,,2013-01-25 09:11:00,
2013-01-25 04:21:00,14.0,7.0,-100.00,WSW,244,1.0,12.0,71,0.00,,,-99.99,,2013-01-25 09:21:00,
2013-01-25 04:32:00,14.0,7.0,-100.00,SW,227,1.0,12.0,69,0.00,,,-99.99,,2013-01-25 09:32:00,
2013-01-25 04:42:00,15.0,9.0,-100.00,West,264,1.0,12.0,71,0.00,,,-99.99,,2013-01-25 09:42:00,
2013-01-25 04:52:00,15.0,7.0,-100.00,West,268,1.0,12.0,68,0.00,,,-99.99,,2013-01-25 09:52:00,
2013-01-25 05:02:00,13.0,5.0,-100.00,WNW,289,1.0,1.0,68,0.00,,,-99.99,,2013-01-25 10:02:00,
2013-01-25 05:12:00,18.0,10.0,-100.00,SW,235,2.0,2.0,69,0.00,,,-99.99,,2013-01-25 10:12:00,
2013-01-25 05:22:00,18.0,10.0,-100.00,West,272,1.0,2.0,68,0.00,,,-99.99,,2013-01-25 10:22:00,
2013-01-25 05:32:00,18.0,10.0,-100.00,WSW,241,3.0,4.0,68,0.00,,,-99.99,,2013-01-25 10:32:00,
2013-01-25 05:42:00,15.0,7.0,-100.00,WNW,297,2.0,4.0,67,0.00,,,-99.99,,2013-01-25 10:42:00,
2013-01-25 05:51:00,18.0,10.0,-100.00,SW,231,1.0,4.0,68,0.00,,,-99.99,,2013-01-25 10:51:00,
2013-01-25 06:03:00,19.0,10.0,-100.00,SSE,163,1.0,4.0,68,0.00,,,-99.99,,2013-01-25 11:03:00,
2013-01-25 06:11:00,19.0,10.0,-100.00,West,271,2.0,4.0,67,0.00,,,-99.99,,2013-01-25 11:11:00,
2013-01-25 06:22:00,19.0,10.0,-100.00,WNW,297,1.0,4.0,67,0.00,,,-99.99,,2013-01-25 11:22:00,
2013-01-25 06:33:00,19.0,10.0,-100.00,WSW,240,2.0,4.0,67,0.00,,,-99.99,,2013-01-25 11:33:00,
2013-01-25 06:42:00,19.0,10.0,-100.00,West,269,1.0,4.0,67,0.00,,,-99.99,,2013-01-25 11:42:00,
2013-01-25 06:52:00,19.0,10.0,-100.00,WNW,297,2.0,4.0,66,0.00,,,-99.99,,2013-01-25 11:52:00,
2013-01-25 07:02:00,18.0,9.0,-100.00,SW,225,4.0,4.0,67,0.00,,,-99.99,,2013-01-25 12:02:00,
2013-01-25 07:12:00,18.0,10.0,-100.00,WNW,292,3.0,6.0,67,0.00,,,-99.99,,2013-01-25 12:12:00,
2013-01-25 07:22:00,18.0,10.0,-100.00,WSW,258,4.0,6.0,67,0.00,,,-99.99,,2013-01-25 12:22:00,
2013-01-25 07:32:00,18.0,10.0,-100.00,SW,224,3.0,6.0,66,0.00,,,-99.99,,2013-01-25 12:32:00,
2013-01-25 07:42:00,19.0,10.0,-100.00,SW,218,2.0,6.0,68,0.00,,,-99.99,,2013-01-25 12:42:00,
2013-01-25 07:53:00,19.0,12.0,-100.00,ENE,63,4.0,6.0,71,0.00,,,-99.99,,2013-01-25 12:53:00,
2013-01-25 08:03:00,15.0,9.0,-100.00,NNW,328,2.0,6.0,69,0.00,,,-99.99,,2013-01-25 13:03:00,
2013-01-25 08:12:00,15.0,7.0,-100.00,NW,326,1.0,6.0,69,0.00,,,-99.99,,2013-01-25 13:12:00,
2013-01-25 08:22:00,16.0,9.0,-100.00,NW,312,1.0,6.0,71,0.00,,,-99.99,,2013-01-25 13:22:00,
2013-01-25 08:33:00,17.0,10.0,-100.00,West,259,2.0,6.0,69,0.00,,,-99.99,,2013-01-25 13:33:00,
2013-01-25 08:43:00,20.0,12.0,-100.00,WNW,303,2.0,6.0,69,0.00,,,-99.99,,2013-01-25 13:43:00,
2013-01-25 08:52:00,18.0,10.0,-100.00,WSW,251,1.0,6.0,69,0.00,,,-99.99,,2013-01-25 13:52:00,
2013-01-25 09:03:00,19.0,12.0,-100.00,ENE,59,1.0,6.0,71,0.00,,,-99.99,,2013-01-25 14:03:00,
2013-01-25 09:12:00,19.0,12.0,-100.00,WNW,289,2.0,6.0,68,0.00,,,-99.99,,2013-01-25 14:12:00,
2013-01-25 09:23:00,19.0,10.0,-100.00,West,273,2.0,6.0,68,0.00,,,-99.99,,2013-01-25 14:23:00,
2013-01-25 09:33:00,19.0,10.0,-100.00,NW,314,2.0,6.0,68,0.00,,,-99.99,,2013-01-25 14:33:00,
2013-01-25 09:42:00,20.0,12.0,-100.00,WSW,255,2.0,6.0,68,0.00,,,-99.99,,2013-01-25 14:42:00,
2013-01-25 09:53:00,19.0,14.0,-100.00,West,269,3.0,6.0,75,0.00,,,-99.99,,2013-01-25 14:53:00,
2013-01-25 10:03:00,19.0,14.0,-100.00,WSW,245,4.0,6.0,77,0.00,,,-99.99,,2013-01-25 15:03:00,
2013-01-25 10:13:00,18.0,14.0,-100.00,SW,228,3.0,6.0,80,0.00,,,-99.99,,2013-01-25 15:13:00,
2013-01-25 10:22:00,18.0,14.0,-100.00,WSW,258,3.0,6.0,81,0.00,,,-99.99,,2013-01-25 15:22:00,
2013-01-25 10:32:00,18.0,14.0,-100.00,SW,228,4.0,6.0,82,0.00,,,-99.99,,2013-01-25 15:32:00,
2013-01-25 10:42:00,18.0,16.0,-100.00,SSW,211,4.0,6.0,85,0.00,,,-99.99,,2013-01-25 15:42:00,
2013-01-25 10:52:00,18.0,16.0,-100.00,West,261,4.0,6.0,85,0.00,,,-99.99,,2013-01-25 15:52:00,
2013-01-25 11:03:00,18.0,16.0,-100.00,SW,235,4.0,6.0,86,0.00,,,-99.99,,2013-01-25 16:03:00,
2013-01-25 11:12:00,18.0,16.0,-100.00,WSW,258,3.0,6.0,86,0.00,,,-99.99,,2013-01-25 16:12:00,
2013-01-25 11:23:00,18.0,16.0,-100.00,West,272,3.0,6.0,86,0.00,,,-99.99,,2013-01-25 16:23:00,
2013-01-25 11:33:00,18.0,16.0,-100.00,WNW,282,4.0,6.0,88,0.00,,,-99.99,,2013-01-25 16:33:00,
2013-01-25 11:43:00,18.0,16.0,-100.00,WNW,286,3.0,6.0,89,0.00,,,-99.99,,2013-01-25 16:43:00,
2013-01-25 11:52:00,16.0,14.0,-100.00,NW,323,1.0,6.0,88,0.00,,,-99.99,,2013-01-25 16:52:00,
2013-01-25 12:03:00,19.0,18.0,-100.00,West,269,2.0,6.0,89,0.00,,,-99.99,,2013-01-25 17:03:00,
2013-01-25 12:12:00,17.0,14.0,-100.00,West,261,2.0,6.0,88,0.00,,,-99.99,,2013-01-25 17:12:00,
2013-01-25 12:22:00,17.0,14.0,-100.00,NW,307,3.0,6.0,89,0.00,,,-99.99,,2013-01-25 17:22:00,
2013-01-25 12:33:00,17.0,14.0,-100.00,NW,310,2.0,6.0,88,0.00,,,-99.99,,2013-01-25 17:33:00,
2013-01-25 12:43:00,17.0,14.0,-100.00,WSW,241,2.0,6.0,88,0.00,,,-99.99,,2013-01-25 17:43:00,
2013-01-25 12:53:00,18.0,16.0,-100.00,NW,313,1.0,6.0,89,0.00,,,-99.99,,2013-01-25 17:53:00,
2013-01-25 13:03:00,17.0,16.0,-100.00,NW,324,2.0,6.0,88,0.00,,,-99.99,,2013-01-25 18:03:00,
2013-01-25 13:12:00,17.0,16.0,-100.00,WSW,247,2.0,6.0,88,0.00,,,-99.99,,2013-01-25 18:12:00,
2013-01-25 13:23:00,17.0,16.0,-100.00,SSW,210,1.0,6.0,88,0.00,,,-99.99,,2013-01-25 18:23:00,
2013-01-25 13:33:00,20.0,18.0,-100.00,WSW,238,1.0,6.0,89,0.00,,,-99.99,,2013-01-25 18:33:00,
2013-01-25 13:42:00,19.0,18.0,-100.00,West,265,2.0,6.0,90,0.00,,,-99.99,,2013-01-25 18:42:00,
2013-01-25 13:52:00,20.0,19.0,-100.00,WSW,248,2.0,6.0,90,0.00,,,-99.99,,2013-01-25 18:52:00,
2013-01-25 14:03:00,21.0,19.0,-100.00,SW,224,2.0,6.0,90,0.00,,,-99.99,,2013-01-25 19:03:00,
2013-01-25 14:12:00,21.0,19.0,-100.00,WSW,241,2.0,6.0,90,0.00,,,-99.99,,2013-01-25 19:12:00,
2013-01-25 14:23:00,21.0,19.0,-100.00,WSW,256,1.0,6.0,90,0.00,,,-99.99,,2013-01-25 19:23:00,
2013-01-25 14:33:00,22.0,19.0,-100.00,SW,216,1.0,6.0,89,0.00,,,-99.99,,2013-01-25 19:33:00,
2013-01-25 14:42:00,21.0,19.0,-100.00,West,265,1.0,6.0,89,0.00,,,-99.99,,2013-01-25 19:42:00,
2013-01-25 14:52:00,22.0,19.0,-100.00,West,269,1.0,6.0,89,0.00,,,-99.99,,2013-01-25 19:52:00,
2013-01-25 15:03:00,23.0,21.0,-100.00,WSW,256,1.0,6.0,90,0.00,,,-99.99,,2013-01-25 20:03:00,
2013-01-25 15:12:00,22.0,19.0,-100.00,NW,321,1.0,6.0,88,0.00,,,-99.99,,2013-01-25 20:12:00,
2013-01-25 15:23:00,22.0,21.0,-100.00,West,272,2.0,6.0,89,0.00,,,-99.99,,2013-01-25 20:23:00,
2013-01-25 15:32:00,23.0,19.0,-100.00,SW,234,2.0,6.0,86,0.00,,,-99.99,,2013-01-25 20:32:00,
2013-01-25 15:42:00,21.0,18.0,-100.00,South,179,2.0,6.0,84,0.00,,,-99.99,,2013-01-25 20:42:00,
2013-01-25 15:52:00,25.0,21.0,-100.00,NNW,331,1.0,6.0,84,0.00,,,-99.99,,2013-01-25 20:52:00,
2013-01-25 16:02:00,23.0,18.0,-100.00,NW,324,1.0,6.0,80,0.00,,,-99.99,,2013-01-25 21:02:00,
2013-01-25 16:12:00,23.0,18.0,-100.00,NW,316,1.0,6.0,80,0.00,,,-99.99,,2013-01-25 21:12:00,
2013-01-25 16:23:00,22.0,18.0,-100.00,NW,326,1.0,6.0,78,0.00,,,-99.99,,2013-01-25 21:23:00,
2013-01-25 16:33:00,24.0,19.0,-100.00,West,264,1.0,6.0,81,0.00,,,-99.99,,2013-01-25 21:33:00,
2013-01-25 16:42:00,24.0,21.0,-100.00,WSW,244,1.0,6.0,81,0.00,,,-99.99,,2013-01-25 21:42:00,
2013-01-25 16:52:00,24.0,19.0,-100.00,WSW,247,1.0,6.0,81,0.00,,,-99.99,,2013-01-25 21:52:00,
2013-01-25 17:03:00,24.0,19.0,-100.00,WSW,248,1.0,6.0,82,0.00,,,-99.99,,2013-01-25 22:03:00,
2013-01-25 17:12:00,24.0,19.0,-100.00,WSW,249,1.0,6.0,82,0.00,,,-99.99,,2013-01-25 22:12:00,
2013-01-25 17:23:00,23.0,19.0,-100.00,SW,232,1.0,6.0,82,0.00,,,-99.99,,2013-01-25 22:23:00,
2013-01-25 17:33:00,22.0,19.0,-100.00,SSW,206,1.0,6.0,82,0.00,,,-99.99,,2013-01-25 22:33:00,
2013-01-25 17:42:00,23.0,19.0,-100.00,SW,230,0.0,6.0,82,0.00,,,-99.99,,2013-01-25 22:42:00,
2013-01-25 17:52:00,22.0,19.0,-100.00,WSW,251,1.0,6.0,82,0.00,,,-99.99,,2013-01-25 22:52:00,
2013-01-25 18:02:00,23.0,19.0,-100.00,SW,234,0.0,6.0,84,0.00,,,-99.99,,2013-01-25 23:02:00,
2013-01-25 18:12:00,23.0,19.0,-100.00,SW,235,1.0,6.0,84,0.00,,,-99.99,,2013-01-25 23:12:00,
2013-01-25 18:22:00,23.0,19.0,-100.00,SSW,211,1.0,6.0,84,0.00,,,-99.99,,2013-01-25 23:22:00,
2013-01-25 18:32:00,23.0,19.0,-100.00,SSE,158,0.0,6.0,84,0.00,,,-99.99,,2013-01-25 23:32:00,
2013-01-25 18:42:00,23.0,19.0,-100.00,SSW,201,0.0,6.0,85,0.00,,,-99.99,,2013-01-25 23:42:00,
2013-01-25 18:52:00,23.0,19.0,-100.00,SW,225,0.0,6.0,85,0.00,,,-99.99,,2013-01-25 23:52:00,
2013-01-25 19:02:00,23.0,19.0,-100.00,East,83,0.0,6.0,85,0.00,,,-99.99,,2013-01-26 00:02:00,
2013-01-25 19:12:00,23.0,19.0,-100.00,SE,141,0.0,6.0,85,0.00,,,-99.99,,2013-01-26 00:12:00,
2013-01-25 19:22:00,23.0,21.0,-100.00,SW,218,0.0,6.0,85,0.00,,,-99.99,,2013-01-26 00:22:00,
2013-01-25 19:32:00,22.0,19.0,-100.00,SW,230,1.0,6.0,85,0.00,,,-99.99,,2013-01-26 00:32:00,
2013-01-25 19:42:00,23.0,19.0,-100.00,SW,224,1.0,6.0,85,0.00,,,-99.99,,2013-01-26 00:42:00,
2013-01-25 19:53:00,23.0,19.0,-100.00,WSW,238,0.0,6.0,86,0.00,,,-99.99,,2013-01-26 00:53:00,
2013-01-25 20:02:00,23.0,21.0,-100.00,ENE,66,0.0,6.0,86,0.00,,,-99.99,,2013-01-26 01:02:00,
2013-01-25 20:12:00,23.0,19.0,-100.00,NE,56,0.0,6.0,86,0.00,,,-99.99,,2013-01-26 01:12:00,
2013-01-25 20:22:00,23.0,21.0,-100.00,East,93,0.0,6.0,86,0.00,,,-99.99,,2013-01-26 01:22:00,
2013-01-25 20:32:00,23.0,21.0,-100.00,NE,52,0.0,6.0,86,0.00,,,-99.99,,2013-01-26 01:32:00,
2013-01-25 20:42:00,23.0,21.0,-100.00,North,355,1.0,6.0,86,0.00,,,-99.99,,2013-01-26 01:42:00,
2013-01-25 20:52:00,23.0,19.0,-100.00,North,4,2.0,6.0,85,0.00,,,-99.99,,2013-01-26 01:52:00,
2013-01-25 21:02:00,23.0,21.0,-100.00,North,9,1.0,6.0,85,0.00,,,-99.99,,2013-01-26 02:02:00,
2013-01-25 21:12:00,23.0,19.0,-100.00,NE,50,1.0,6.0,84,0.00,,,-99.99,,2013-01-26 02:12:00,
2013-01-25 21:22:00,23.0,19.0,-100.00,NNE,28,1.0,6.0,85,0.00,,,-99.99,,2013-01-26 02:22:00,
2013-01-25 21:32:00,23.0,19.0,-100.00,North,360,1.0,6.0,85,0.00,,,-99.99,,2013-01-26 02:32:00,
2013-01-25 21:42:00,23.0,19.0,-100.00,North,357,1.0,6.0,85,0.00,,,-99.99,,2013-01-26 02:42:00,
2013-01-25 21:52:00,23.0,19.0,-100.00,NE,42,0.0,6.0,85,0.00,,,-99.99,,2013-01-26 02:52:00,
2013-01-25 22:02:00,23.0,21.0,-100.00,NNE,28,1.0,6.0,85,0.00,,,-99.99,,2013-01-26 03:02:00,
2013-01-25 22:12:00,23.0,19.0,-100.00,NNW,345,1.0,6.0,85,0.00,,,-99.99,,2013-01-26 03:12:00,
2013-01-25 22:22:00,23.0,21.0,-100.00,NE,49,2.0,6.0,85,0.00,,,-99.99,,2013-01-26 03:22:00,
2013-01-25 22:32:00,24.0,21.0,-100.00,NE,40,2.0,6.0,86,0.00,,,-99.99,,2013-01-26 03:32:00,
2013-01-25 22:43:00,24.0,21.0,-100.00,ENE,70,2.0,6.0,86,0.00,,,-99.99,,2013-01-26 03:43:00,
2013-01-25 22:52:00,24.0,21.0,-100.00,NE,53,1.0,6.0,86,0.00,,,-99.99,,2013-01-26 03:52:00,
2013-01-25 23:02:00,24.0,21.0,-100.00,ENE,59,1.0,6.0,88,0.00,,,-99.99,,2013-01-26 04:02:00,
2013-01-25 23:12:00,21.0,18.0,-100.00,NNE,24,2.0,6.0,86,0.00,,,-99.99,,2013-01-26 04:12:00,
2013-01-25 23:21:00,21.0,19.0,-100.00,NE,36,4.0,6.0,88,0.00,,,-99.99,,2013-01-26 04:21:00,
2013-01-25 23:32:00,20.0,19.0,-100.00,NE,35,4.0,6.0,89,0.00,,,-99.99,,2013-01-26 04:32:00,
2013-01-25 23:42:00,21.0,19.0,-100.00,NE,35,3.0,6.0,89,0.00,,,-99.99,,2013-01-26 04:42:00,
2013-01-25 23:52:00,24.0,23.0,-100.00,ENE,59,3.0,6.0,90,0.00,,,-99.99,,2013-01-26 04:52:00,